createdAt,value
2022-11-18T00:01:19.328Z,77261.91
2022-11-18T00:03:46.325Z,77259.88
2022-11-18T00:06:15.867Z,77253.78
2022-11-18T00:08:43.186Z,77257.84
2022-11-18T00:11:35.467Z,77263.94
2022-11-18T00:14:20.985Z,77270.00
2022-11-18T00:17:01.676Z,77265.97
2022-11-18T00:19:37.497Z,77263.94
2022-11-18T00:22:07.017Z,77265.97
2022-11-18T00:24:34.393Z,77257.84
2022-11-18T00:27:01.323Z,77261.91
2022-11-18T00:29:29.269Z,77263.94
2022-11-18T00:31:57.148Z,77261.91
2022-11-18T00:34:26.358Z,77257.84
2022-11-18T00:36:53.401Z,77261.91
2022-11-18T00:39:21.488Z,77257.84
2022-11-18T00:42:08.227Z,77265.97
2022-11-18T00:44:35.693Z,77257.84
2022-11-18T00:47:03.154Z,77261.91
2022-11-18T00:49:30.487Z,77274.06
2022-11-18T00:51:57.478Z,77278.13
2022-11-18T00:54:24.727Z,77278.13
2022-11-18T00:56:51.577Z,77286.22
2022-11-18T00:59:19.150Z,77286.22
2022-11-18T01:01:46.350Z,77286.22
2022-11-18T01:04:13.671Z,77282.19
2022-11-18T01:06:41.560Z,77286.22
2022-11-18T01:09:08.734Z,77282.19
2022-11-18T01:11:54.290Z,77294.34
2022-11-18T01:14:24.872Z,77286.22
2022-11-18T01:16:54.995Z,77290.28
2022-11-18T01:19:22.783Z,77290.28
2022-11-18T01:21:50.370Z,77294.34
2022-11-18T01:24:17.508Z,77282.19
2022-11-18T01:26:44.510Z,77270.00
2022-11-18T01:29:11.755Z,77267.97
2022-11-18T01:31:50.122Z,77261.91
2022-11-18T01:34:29.283Z,77259.88
2022-11-18T01:36:57.386Z,77265.97
2022-11-18T01:39:24.986Z,77274.06
2022-11-18T01:41:51.796Z,77263.94
2022-11-18T01:44:56.538Z,77261.91
2022-11-18T01:47:25.795Z,77253.78
2022-11-18T01:49:53.431Z,77245.69
2022-11-18T01:52:21.660Z,77251.75
2022-11-18T01:54:55.726Z,77249.75
2022-11-18T01:57:23.689Z,77245.69
2022-11-18T01:59:54.328Z,77245.69
2022-11-18T02:02:22.651Z,77243.66
2022-11-18T02:04:52.809Z,77245.69
2022-11-18T02:07:21.444Z,77241.63
2022-11-18T02:09:49.257Z,77229.47
2022-11-18T02:12:16.252Z,77233.53
2022-11-18T02:14:46.366Z,77229.47
2022-11-18T02:17:50.560Z,77245.69
2022-11-18T02:20:31.894Z,77241.63
2022-11-18T02:23:31.266Z,77233.53
2022-11-18T02:26:28.496Z,77241.63
2022-11-18T02:28:59.094Z,77233.53
2022-11-18T02:31:34.554Z,77241.63
2022-11-18T02:34:43.235Z,77241.63
2022-11-18T02:37:36.916Z,77241.63
2022-11-18T02:40:11.324Z,77237.56
2022-11-18T02:42:40.430Z,77241.63
2022-11-18T02:45:13.064Z,77233.53
2022-11-18T02:47:43.304Z,77229.47
2022-11-18T02:50:14.455Z,77233.53
2022-11-18T02:52:42.942Z,77229.47
2022-11-18T02:55:13.764Z,77231.50
2022-11-18T02:57:43.956Z,77225.41
2022-11-18T03:00:11.813Z,77225.41
2022-11-18T03:02:43.085Z,77221.34
2022-11-18T03:05:40.296Z,77221.34
2022-11-18T03:08:13.658Z,77219.31
2022-11-18T03:10:48.180Z,77215.28
2022-11-18T03:13:49.152Z,77209.19
2022-11-18T03:16:25.310Z,77209.19
2022-11-18T03:18:55.155Z,77205.13
2022-11-18T03:21:35.605Z,77209.19
2022-11-18T03:24:22.644Z,77205.13
2022-11-18T03:26:57.209Z,77205.13
2022-11-18T03:29:33.530Z,77201.06
2022-11-18T03:32:12.162Z,77207.16
2022-11-18T03:34:47.105Z,77205.13
2022-11-18T03:37:16.729Z,77201.06
2022-11-18T03:39:52.744Z,77209.19
2022-11-18T03:42:27.651Z,77221.34
2022-11-18T03:45:01.806Z,77217.28
2022-11-18T03:47:35.997Z,77213.25
2022-11-18T03:50:31.764Z,77217.28
2022-11-18T03:53:01.203Z,77229.47
2022-11-18T03:55:36.769Z,77225.41
2022-11-18T03:58:12.255Z,77229.47
2022-11-18T04:00:44.684Z,77225.41
2022-11-18T04:03:12.732Z,77229.47
2022-11-18T04:05:42.866Z,77241.63
2022-11-18T04:08:15.759Z,77245.69
2022-11-18T04:10:55.564Z,77253.78
2022-11-18T04:13:27.170Z,77249.75
2022-11-18T04:15:55.574Z,77261.91
2022-11-18T04:18:23.687Z,77261.91
2022-11-18T04:20:50.777Z,77257.84
2022-11-18T04:23:17.863Z,77267.97
2022-11-18T04:25:45.129Z,77255.81
2022-11-18T04:28:12.024Z,77257.84
2022-11-18T04:30:39.324Z,77257.84
2022-11-18T04:33:06.303Z,77265.97
2022-11-18T04:35:33.741Z,77270.00
2022-11-18T04:38:00.995Z,77278.13
2022-11-18T04:40:28.727Z,77274.06
2022-11-18T04:42:55.637Z,77278.13
2022-11-18T04:45:22.750Z,77267.97
2022-11-18T04:47:49.557Z,77272.03
2022-11-18T04:50:16.983Z,77282.19
2022-11-18T04:52:43.941Z,77274.06
2022-11-18T04:55:11.361Z,77270.00
2022-11-18T04:57:38.293Z,77276.09
2022-11-18T05:00:06.234Z,77290.28
2022-11-18T05:02:33.021Z,77294.34
2022-11-18T05:05:00.184Z,77298.41
2022-11-18T05:07:27.247Z,77296.38
2022-11-18T05:09:54.590Z,77294.34
2022-11-18T05:12:40.110Z,77298.41
2022-11-18T05:15:07.594Z,77294.34
2022-11-18T05:17:35.945Z,77298.41
2022-11-18T05:20:03.308Z,77298.41
2022-11-18T05:22:30.204Z,77300.44
2022-11-18T05:24:57.750Z,77302.44
2022-11-18T05:27:24.746Z,77306.50
2022-11-18T05:29:52.402Z,77310.56
2022-11-18T05:32:19.241Z,77320.69
2022-11-18T05:34:46.455Z,77302.44
2022-11-18T05:37:13.914Z,77310.56
2022-11-18T05:39:41.178Z,77306.50
2022-11-18T05:42:26.890Z,77294.34
2022-11-18T05:44:58.195Z,77298.41
2022-11-18T05:47:26.345Z,77298.41
2022-11-18T05:49:53.873Z,77294.34
2022-11-18T05:52:20.816Z,77294.34
2022-11-18T05:54:50.509Z,77298.41
2022-11-18T05:57:17.734Z,77298.41
2022-11-18T05:59:44.947Z,77298.41
2022-11-18T06:02:18.894Z,77294.34
2022-11-18T06:05:05.341Z,77300.44
2022-11-18T06:07:35.164Z,77294.34
2022-11-18T06:10:05.818Z,77298.41
2022-11-18T06:12:42.213Z,77302.44
2022-11-18T06:15:26.407Z,77290.28
2022-11-18T06:17:59.342Z,77290.28
2022-11-18T06:20:27.306Z,77298.41
2022-11-18T06:22:58.166Z,77292.31
2022-11-18T06:25:25.775Z,77294.34
2022-11-18T06:27:55.544Z,77298.41
2022-11-18T06:30:24.147Z,77298.41
2022-11-18T06:32:53.948Z,77294.34
2022-11-18T06:35:22.335Z,77290.28
2022-11-18T06:37:49.764Z,77294.34
2022-11-18T06:40:19.217Z,77294.34
2022-11-18T06:43:05.207Z,77294.34
2022-11-18T06:45:33.002Z,77302.44
2022-11-18T06:48:01.815Z,77302.44
2022-11-18T06:50:31.315Z,77310.56
2022-11-18T06:53:01.461Z,77302.44
2022-11-18T06:55:28.864Z,77302.44
2022-11-18T06:57:56.850Z,77302.44
2022-11-18T07:00:24.150Z,77298.41
2022-11-18T07:02:51.962Z,77302.44
2022-11-18T07:05:19.351Z,77298.41
2022-11-18T07:07:46.479Z,77302.44
2022-11-18T07:10:13.968Z,77294.34
2022-11-18T07:12:40.921Z,77294.34
2022-11-18T07:15:08.807Z,77290.28
2022-11-18T07:17:35.792Z,77286.22
2022-11-18T07:20:03.200Z,77294.34
2022-11-18T07:22:30.408Z,77286.22
2022-11-18T07:24:57.703Z,77294.34
2022-11-18T07:27:24.601Z,77292.31
2022-11-18T07:29:51.856Z,77296.38
2022-11-18T07:32:18.717Z,77282.19
2022-11-18T07:34:46.252Z,77300.44
2022-11-18T07:37:13.623Z,77298.41
2022-11-18T07:39:42.141Z,77298.41
2022-11-18T07:42:09.806Z,77298.41
2022-11-18T07:44:37.099Z,77300.44
2022-11-18T07:47:04.359Z,77294.34
2022-11-18T07:49:31.777Z,77294.34
2022-11-18T07:51:58.688Z,77294.34
2022-11-18T07:54:25.905Z,77286.22
2022-11-18T07:56:52.729Z,77286.22
2022-11-18T07:59:20.596Z,77286.22
2022-11-18T08:01:47.714Z,77282.19
2022-11-18T08:04:15.417Z,77274.06
2022-11-18T08:06:42.279Z,77286.22
2022-11-18T08:09:10.386Z,77274.06
2022-11-18T08:11:37.437Z,77274.06
2022-11-18T08:14:04.883Z,77280.16
2022-11-18T08:16:31.891Z,77270.00
2022-11-18T08:18:59.791Z,77265.97
2022-11-18T08:21:26.817Z,77261.91
2022-11-18T08:23:56.933Z,77270.00
2022-11-18T08:26:25.154Z,77270.00
2022-11-18T08:28:53.605Z,77265.97
2022-11-18T08:31:27.135Z,77261.91
2022-11-18T08:33:58.928Z,77274.06
2022-11-18T08:36:27.695Z,77272.03
2022-11-18T08:38:59.565Z,77265.97
2022-11-18T08:41:32.485Z,77270.00
2022-11-18T08:44:00.848Z,77261.91
2022-11-18T08:46:28.350Z,77257.84
2022-11-18T08:48:55.764Z,77253.78
2022-11-18T08:51:22.853Z,77245.69
2022-11-18T08:53:50.458Z,77257.84
2022-11-18T08:56:22.283Z,77249.75
2022-11-18T08:58:49.730Z,77253.78
2022-11-18T09:01:17.166Z,77253.78
2022-11-18T09:03:44.544Z,77253.78
2022-11-18T09:06:18.106Z,77249.75
2022-11-18T09:08:47.565Z,77249.75
2022-11-18T09:11:20.019Z,77249.75
2022-11-18T09:16:36.796Z,77241.63
2022-11-18T09:19:24.825Z,77253.78
2022-11-18T09:21:51.520Z,77245.69
2022-11-18T09:24:18.918Z,77241.63
2022-11-18T09:26:46.566Z,77245.69
2022-11-18T09:29:13.463Z,77249.75
2022-11-18T09:31:40.759Z,77245.69
2022-11-18T09:34:10.344Z,77247.72
2022-11-18T09:36:37.673Z,77249.75
2022-11-18T09:39:04.865Z,77257.84
2022-11-18T09:41:48.711Z,77251.75
2022-11-18T09:44:40.143Z,77257.84
2022-11-18T09:47:24.943Z,77233.53
2022-11-18T09:49:54.083Z,77239.59
2022-11-18T09:52:35.955Z,77245.69
2022-11-18T09:55:23.941Z,77245.69
2022-11-18T09:57:54.529Z,77237.56
2022-11-18T10:00:24.583Z,77245.69
2022-11-18T10:02:54.903Z,77233.53
2022-11-18T10:05:24.520Z,77221.34
2022-11-18T10:07:54.735Z,77225.41
2022-11-18T10:10:30.965Z,77231.50
2022-11-18T10:13:08.882Z,77233.53
2022-11-18T10:15:50.099Z,77237.56
2022-11-18T10:18:52.866Z,77245.69
2022-11-18T10:21:31.402Z,77245.69
2022-11-18T10:24:13.294Z,77241.63
2022-11-18T10:26:42.330Z,77229.47
2022-11-18T10:29:11.297Z,77227.44
2022-11-18T10:32:04.721Z,77233.53
2022-11-18T10:34:34.363Z,77245.69
2022-11-18T10:37:45.765Z,77241.63
2022-11-18T10:40:27.398Z,77245.69
2022-11-18T10:42:55.032Z,77249.75
2022-11-18T10:45:29.622Z,77245.69
2022-11-18T10:48:20.288Z,77243.66
2022-11-18T10:50:55.851Z,77249.75
2022-11-18T10:53:37.597Z,77251.75
2022-11-18T10:56:07.946Z,77237.56
2022-11-18T10:58:38.530Z,77227.44
2022-11-18T11:01:26.356Z,77217.28
2022-11-18T11:04:24.843Z,77225.41
2022-11-18T11:06:52.613Z,77229.47
2022-11-18T11:09:22.423Z,77225.41
2022-11-18T11:11:57.947Z,77229.47
2022-11-18T11:14:38.831Z,77239.59
2022-11-18T11:17:15.783Z,77233.53
2022-11-18T11:20:13.208Z,77233.53
2022-11-18T11:22:42.917Z,77233.53
2022-11-18T11:25:16.246Z,77233.53
2022-11-18T11:31:01.743Z,77233.53
2022-11-18T11:33:36.575Z,77217.28
2022-11-18T11:36:15.626Z,77211.22
2022-11-18T11:39:01.284Z,77211.22
2022-11-18T11:41:42.112Z,77213.25
2022-11-18T11:44:54.726Z,77213.25
2022-11-18T11:47:40.129Z,77192.97
2022-11-18T11:50:22.514Z,77180.81
2022-11-18T11:53:17.459Z,77168.63
2022-11-18T11:56:02.971Z,77164.59
2022-11-18T11:59:07.190Z,77160.53
2022-11-18T12:02:19.755Z,77162.56
2022-11-18T12:04:52.554Z,77168.63
2022-11-18T12:07:24.276Z,77176.75
2022-11-18T12:10:22.203Z,77180.81
2022-11-18T12:13:09.263Z,77180.81
2022-11-18T12:16:07.144Z,77178.78
2022-11-18T12:18:42.994Z,77184.84
2022-11-18T12:21:45.516Z,77182.84
2022-11-18T12:24:31.607Z,77176.75
2022-11-18T12:27:34.664Z,77184.84
2022-11-18T12:30:04.121Z,77186.88
2022-11-18T12:32:45.453Z,77192.97
2022-11-18T12:35:12.827Z,77192.97
2022-11-18T12:37:47.841Z,77192.97
2022-11-18T12:40:53.927Z,77201.06
2022-11-18T12:43:45.338Z,77201.06
2022-11-18T12:46:49.334Z,77197.03
2022-11-18T12:49:22.660Z,77195.00
2022-11-18T12:51:55.239Z,77184.84
2022-11-18T12:54:22.318Z,77182.84
2022-11-18T12:56:51.087Z,77186.88
2022-11-18T12:59:27.764Z,77192.97
2022-11-18T13:02:11.352Z,77188.91
2022-11-18T13:04:44.989Z,77192.97
2022-11-18T13:07:39.645Z,77205.13
2022-11-18T13:10:20.240Z,77213.25
2022-11-18T13:12:49.203Z,77217.28
2022-11-18T13:15:34.864Z,77225.41
2022-11-18T13:18:17.106Z,77217.28
2022-11-18T13:20:55.979Z,77225.41
2022-11-18T13:23:54.894Z,77229.47
2022-11-18T13:26:28.880Z,77225.41
2022-11-18T13:29:03.387Z,77225.41
2022-11-18T13:31:52.354Z,77217.28
2022-11-18T13:34:25.775Z,77219.31
2022-11-18T13:37:04.330Z,77219.31
2022-11-18T13:39:32.986Z,77227.44
2022-11-18T13:42:05.584Z,77225.41
2022-11-18T13:44:38.146Z,77229.47
2022-11-18T13:47:20.559Z,77241.63
2022-11-18T13:50:03.437Z,77241.63
2022-11-18T13:52:41.984Z,77239.59
2022-11-18T13:55:25.465Z,77237.56
2022-11-18T13:57:57.825Z,77237.56
2022-11-18T14:00:28.490Z,77243.66
2022-11-18T14:03:00.313Z,77245.69
2022-11-18T14:05:27.940Z,77253.78
2022-11-18T14:08:06.485Z,77253.78
2022-11-18T14:10:44.275Z,77253.78
2022-11-18T14:13:26.531Z,77261.91
2022-11-18T14:15:59.682Z,77274.06
2022-11-18T14:18:37.981Z,77278.13
2022-11-18T14:21:06.274Z,77265.97
2022-11-18T14:23:37.632Z,77282.19
2022-11-18T14:26:07.091Z,77294.34
2022-11-18T14:28:38.690Z,77296.38
2022-11-18T14:31:31.868Z,77300.44
2022-11-18T14:34:27.110Z,77310.56
2022-11-18T14:36:55.933Z,77310.56
2022-11-18T14:39:32.045Z,77314.63
2022-11-18T14:41:59.785Z,77318.66
2022-11-18T14:44:28.280Z,77318.66
2022-11-18T14:47:02.133Z,77322.72
2022-11-18T14:49:46.758Z,77322.72
2022-11-18T14:52:13.899Z,77330.84
2022-11-18T14:54:45.508Z,77338.94
2022-11-18T14:57:17.266Z,77334.91
2022-11-18T14:59:45.148Z,77330.84
2022-11-18T15:02:16.499Z,77347.06
2022-11-18T15:04:44.242Z,77343.00
2022-11-18T15:07:23.085Z,77347.06
2022-11-18T15:09:51.760Z,77355.16
2022-11-18T15:12:19.453Z,77347.06
2022-11-18T15:14:46.669Z,77351.13
2022-11-18T15:17:14.071Z,77349.09
2022-11-18T15:19:41.801Z,77347.06
2022-11-18T15:22:09.638Z,77351.13
2022-11-18T15:24:38.803Z,77361.25
2022-11-18T15:27:05.781Z,77367.34
2022-11-18T15:29:33.084Z,77371.38
2022-11-18T15:32:00.338Z,77367.34
2022-11-18T15:34:27.761Z,77371.38
2022-11-18T15:36:54.606Z,77383.56
2022-11-18T15:39:22.231Z,77387.59
2022-11-18T15:41:49.205Z,77405.84
2022-11-18T15:44:17.418Z,77399.78
2022-11-18T15:46:48.064Z,77422.06
2022-11-18T15:49:17.648Z,77426.13
2022-11-18T15:51:44.696Z,77436.28
2022-11-18T15:54:12.084Z,77440.31
2022-11-18T15:56:40.139Z,77452.50
2022-11-18T15:59:11.731Z,77464.66
2022-11-18T16:01:54.991Z,77464.66
2022-11-18T16:04:23.426Z,77468.72
2022-11-18T16:06:50.644Z,77472.78
2022-11-18T16:09:18.527Z,77468.72
2022-11-18T16:12:05.081Z,77480.88
2022-11-18T16:14:32.831Z,77484.94
2022-11-18T16:17:00.019Z,77493.03
2022-11-18T16:19:31.519Z,77501.16
2022-11-18T16:21:58.523Z,77509.25
2022-11-18T16:24:29.249Z,77519.41
2022-11-18T16:26:56.897Z,77525.47
2022-11-18T16:29:24.776Z,77533.59
2022-11-18T16:31:53.011Z,77545.75
2022-11-18T16:34:28.132Z,77545.75
2022-11-18T16:36:57.501Z,77553.88
2022-11-18T16:39:27.328Z,77564.00
2022-11-18T16:42:07.501Z,77549.81
2022-11-18T16:44:36.230Z,77559.97
2022-11-18T16:47:07.749Z,77566.03
2022-11-18T16:49:38.145Z,77578.22
2022-11-18T16:52:07.275Z,77570.09
2022-11-18T16:54:35.604Z,77582.25
2022-11-18T16:57:04.249Z,77580.22
2022-11-18T16:59:32.175Z,77586.31
2022-11-18T17:02:00.176Z,77586.31
2022-11-18T17:04:30.826Z,77590.38
2022-11-18T17:07:02.232Z,77578.22
2022-11-18T17:09:29.551Z,77580.22
2022-11-18T17:11:58.547Z,77590.38
2022-11-18T17:14:26.263Z,77588.34
2022-11-18T17:16:53.731Z,77590.38
2022-11-18T17:19:22.836Z,77594.44
2022-11-18T17:21:53.199Z,77594.44
2022-11-18T17:24:22.964Z,77590.38
2022-11-18T17:26:51.130Z,77582.25
2022-11-18T17:29:18.709Z,77594.44
2022-11-18T17:31:45.796Z,77598.47
2022-11-18T17:34:14.933Z,77602.53
2022-11-18T17:36:42.857Z,77594.44
2022-11-18T17:39:11.884Z,77600.50
2022-11-18T17:41:58.061Z,77602.53
2022-11-18T17:44:27.582Z,77608.63
2022-11-18T17:46:54.590Z,77608.63
2022-11-18T17:49:22.493Z,77602.53
2022-11-18T17:51:51.343Z,77602.53
2022-11-18T17:54:20.089Z,77602.53
2022-11-18T17:56:48.216Z,77608.63
2022-11-18T17:59:17.626Z,77598.47
2022-11-18T18:01:45.857Z,77610.66
2022-11-18T18:04:21.600Z,77594.44
2022-11-18T18:06:51.551Z,77602.53
2022-11-18T18:09:28.902Z,77602.53
2022-11-18T18:11:57.622Z,77600.50
2022-11-18T18:14:24.806Z,77594.44
2022-11-18T18:16:52.389Z,77608.63
2022-11-18T18:19:22.182Z,77614.69
2022-11-18T18:21:49.777Z,77622.81
2022-11-18T18:24:19.710Z,77618.75
2022-11-18T18:27:05.271Z,77620.78
2022-11-18T18:29:32.649Z,77616.72
2022-11-18T18:31:59.979Z,77618.75
2022-11-18T18:34:27.519Z,77614.69
2022-11-18T18:36:54.808Z,77622.81
2022-11-18T18:39:23.229Z,77622.81
2022-11-18T18:41:50.248Z,77622.81
2022-11-18T18:44:18.914Z,77630.94
2022-11-18T18:46:46.055Z,77630.94
2022-11-18T18:49:18.320Z,77637.00
2022-11-18T18:51:49.070Z,77634.97
2022-11-18T18:54:19.336Z,77634.97
2022-11-18T18:56:46.536Z,77634.97
2022-11-18T18:59:13.763Z,77637.00
2022-11-18T19:01:41.032Z,77634.97
2022-11-18T19:04:11.495Z,77630.94
2022-11-18T19:09:28.094Z,77634.97
2022-11-18T19:12:14.219Z,77643.09
2022-11-18T19:14:41.452Z,77632.94
2022-11-18T19:17:11.612Z,77639.03
2022-11-18T19:20:06.072Z,77634.97
2022-11-18T19:22:33.646Z,77639.03
2022-11-18T19:25:02.043Z,77639.03
2022-11-18T19:27:30.217Z,77643.09
2022-11-18T19:29:57.593Z,77645.13
2022-11-18T19:32:24.546Z,77643.09
2022-11-18T19:34:51.887Z,77645.13
2022-11-18T19:37:18.748Z,77651.19
2022-11-18T19:39:46.341Z,77653.22
2022-11-18T19:42:13.278Z,77651.19
2022-11-18T19:44:40.386Z,77659.31
2022-11-18T19:47:07.469Z,77665.41
2022-11-18T19:49:34.916Z,77671.47
2022-11-18T19:52:02.300Z,77675.53
2022-11-18T19:54:29.575Z,77675.53
2022-11-18T19:56:56.334Z,77687.69
2022-11-18T19:59:23.829Z,77691.75
2022-11-18T20:01:51.122Z,77685.69
2022-11-18T20:04:18.400Z,77693.78
2022-11-18T20:06:46.021Z,77691.75
2022-11-18T20:09:13.418Z,77687.69
2022-11-18T20:11:40.809Z,77687.69
2022-11-18T20:14:08.508Z,77683.66
2022-11-18T20:16:37.328Z,77683.66
2022-11-18T20:19:10.564Z,77687.69
2022-11-18T20:21:39.280Z,77689.72
2022-11-18T20:24:07.930Z,77695.81
2022-11-18T20:26:37.883Z,77691.75
2022-11-18T20:29:06.522Z,77703.94
2022-11-18T20:31:35.894Z,77699.88
2022-11-18T20:34:03.698Z,77703.94
2022-11-18T20:36:36.250Z,77707.97
2022-11-18T20:39:12.489Z,77712.03
2022-11-18T20:41:39.671Z,77707.97
2022-11-18T20:44:06.690Z,77707.97
2022-11-18T20:46:34.709Z,77703.94
2022-11-18T20:49:01.853Z,77707.97
2022-11-18T20:51:29.763Z,77724.19
2022-11-18T20:53:57.648Z,77716.09
2022-11-18T20:56:27.102Z,77720.16
2022-11-18T20:58:56.734Z,77712.03
2022-11-18T21:01:29.634Z,77716.09
2022-11-18T21:03:59.101Z,77728.25
2022-11-18T21:06:29.067Z,77740.44
2022-11-18T21:08:58.623Z,77732.31
2022-11-18T21:11:26.546Z,77740.44
2022-11-18T21:14:12.141Z,77746.50
2022-11-18T21:16:41.080Z,77748.53
2022-11-18T21:19:10.792Z,77762.72
2022-11-18T21:21:52.695Z,77770.84
2022-11-18T21:24:20.910Z,77764.75
2022-11-18T21:26:49.277Z,77770.84
2022-11-18T21:29:17.499Z,77766.78
2022-11-18T21:31:47.041Z,77764.75
2022-11-18T21:34:15.884Z,77768.81
2022-11-18T21:36:46.996Z,77768.81
2022-11-18T21:39:17.722Z,77768.81
2022-11-18T21:41:45.082Z,77780.97
2022-11-18T21:44:13.625Z,77774.91
2022-11-18T21:46:42.093Z,77768.81
2022-11-18T21:49:09.708Z,77774.91
2022-11-18T21:51:37.053Z,77772.88
2022-11-18T21:54:04.792Z,77780.97
2022-11-18T21:56:32.392Z,77793.16
2022-11-18T21:59:01.154Z,77797.19
2022-11-18T22:01:33.420Z,77797.19
2022-11-18T22:04:04.063Z,77801.25
2022-11-18T22:06:33.836Z,77805.31
2022-11-18T22:09:03.988Z,77803.28
2022-11-18T22:11:31.254Z,77809.38
2022-11-18T22:13:58.787Z,77809.38
2022-11-18T22:16:27.292Z,77809.38
2022-11-18T22:19:01.437Z,77817.47
2022-11-18T22:21:30.799Z,77813.44
2022-11-18T22:24:02.388Z,77815.44
2022-11-18T22:26:29.583Z,77813.44
2022-11-18T22:28:58.258Z,77817.47
2022-11-18T22:31:27.251Z,77829.66
2022-11-18T22:33:56.335Z,77825.59
2022-11-18T22:36:25.766Z,77833.69
2022-11-18T22:38:53.520Z,77845.88
2022-11-18T22:41:41.741Z,77845.88
2022-11-18T22:44:10.099Z,77845.88
2022-11-18T22:46:37.914Z,77851.97
2022-11-18T22:49:06.373Z,77853.97
2022-11-18T22:51:33.819Z,77841.81
2022-11-18T22:54:37.606Z,77845.88
2022-11-18T22:56:48.138Z,77841.81
2022-11-18T22:59:15.273Z,77837.75
2022-11-18T23:01:42.466Z,77837.75
2022-11-18T23:04:09.887Z,77837.75
2022-11-18T23:06:36.785Z,77829.66
2022-11-18T23:09:03.964Z,77829.66
2022-11-18T23:11:49.700Z,77837.75
2022-11-18T23:14:17.061Z,77829.66
2022-11-18T23:16:44.088Z,77833.69
2022-11-18T23:19:14.019Z,77833.69
2022-11-18T23:21:42.446Z,77837.75
2022-11-18T23:24:14.974Z,77829.66
2022-11-18T23:26:42.062Z,77823.56
2022-11-18T23:29:10.924Z,77821.53
2022-11-18T23:31:43.733Z,77821.53
2022-11-18T23:34:12.340Z,77821.53
2022-11-18T23:36:39.940Z,77825.59
2022-11-18T23:39:07.829Z,77823.56
2022-11-18T23:41:35.184Z,77813.44
2022-11-18T23:44:02.956Z,77813.44
2022-11-18T23:46:30.256Z,77821.53
2022-11-18T23:48:57.687Z,77817.47
2022-11-18T23:51:26.176Z,77817.47
2022-11-18T23:53:55.765Z,77821.53
2022-11-18T23:56:26.284Z,77817.47
2022-11-18T23:58:55.824Z,77819.50
